Time;durP1;ratioP1;P1;durP2;ratioP2;P2;SDS_P1;SDS_P2;PMS_P1;PMS_P2;Temp;Humidity;BMP_temperature;BMP_pressure;BME280_temperature;BME280_humidity;BME280_pressure;Samples;Min_cycle;Max_cycle;Signal;HPM_P1;HPM_P2
2022/11/08 00:01:32;;;;;;;7.93;4.63;;;;;;;9.17;100.00;100263.59;5049386;28;20234;-74
2022/11/08 00:04:01;;;;;;;6.88;4.50;;;;;;;9.13;100.00;100267.34;5030114;28;20774;-75
2022/11/08 00:14:41;;;;;;;10.63;5.00;;;;;;;8.78;100.00;100285.78;5048172;28;20674;-76
2022/11/08 00:17:08;;;;;;;6.68;3.97;;;;;;;8.68;100.00;100281.69;5050295;28;20200;-74
2022/11/08 00:19:36;;;;;;;8.75;5.20;;;;;;;8.62;100.00;100284.63;5044566;28;20257;-74
2022/11/08 00:22:03;;;;;;;8.55;5.10;;;;;;;8.45;100.00;100285.28;5052545;28;20201;-75
2022/11/08 00:24:29;;;;;;;7.75;4.20;;;;;;;8.33;100.00;100278.53;5050951;28;20237;-74
2022/11/08 00:26:56;;;;;;;8.98;4.18;;;;;;;8.29;100.00;100285.81;5042236;28;20329;-75
2022/11/08 00:29:23;;;;;;;7.72;4.90;;;;;;;8.20;100.00;100278.13;5038885;28;20255;-74
2022/11/08 00:31:49;;;;;;;5.60;3.88;;;;;;;8.13;100.00;100276.59;5038508;28;20218;-75
2022/11/08 00:34:16;;;;;;;11.10;4.80;;;;;;;8.06;100.00;100280.44;5033605;28;20230;-75
2022/11/08 00:36:44;;;;;;;9.25;5.18;;;;;;;8.01;100.00;100269.03;5039102;28;20198;-74
2022/11/08 00:39:10;;;;;;;7.93;4.60;;;;;;;7.99;100.00;100276.25;5036874;28;20201;-74
2022/11/08 00:41:37;;;;;;;7.00;4.30;;;;;;;7.94;100.00;100274.59;5035247;28;20595;-74
2022/11/08 00:44:04;;;;;;;16.23;4.63;;;;;;;7.90;100.00;100282.81;5035875;28;20204;-76
2022/11/08 00:46:31;;;;;;;13.20;4.22;;;;;;;7.85;100.00;100276.75;5034234;28;20577;-74
2022/11/08 00:48:57;;;;;;;5.75;4.65;;;;;;;7.86;100.00;100274.00;5035224;28;20201;-74
2022/11/08 00:51:24;;;;;;;6.85;4.88;;;;;;;7.83;100.00;100262.53;5040377;28;20324;-74
2022/11/08 00:53:52;;;;;;;7.80;4.93;;;;;;;7.75;100.00;100260.09;5034598;28;20229;-74
2022/11/08 00:56:18;;;;;;;8.07;4.57;;;;;;;7.72;100.00;100263.78;5037194;28;20200;-73
2022/11/08 00:58:45;;;;;;;6.15;4.40;;;;;;;7.73;100.00;100262.84;5036135;28;20207;-72
2022/11/08 01:01:13;;;;;;;6.68;4.05;;;;;;;7.71;100.00;100263.81;5039004;28;20217;-74
2022/11/08 01:03:40;;;;;;;7.72;4.43;;;;;;;7.68;100.00;100263.94;5036648;28;20206;-74
2022/11/08 01:06:09;;;;;;;9.70;5.05;;;;;;;7.59;100.00;100253.53;5033698;28;20296;-76
2022/11/08 01:08:35;;;;;;;7.53;4.82;;;;;;;7.59;100.00;100258.91;5027083;28;20292;-74
2022/11/08 01:11:06;;;;;;;13.05;5.10;;;;;;;7.57;100.00;100258.94;5032652;28;20225;-74
2022/11/08 01:13:33;;;;;;;6.45;3.95;;;;;;;7.54;100.00;100253.72;5039225;28;20216;-73
2022/11/08 01:16:05;;;;;;;8.65;3.92;;;;;;;7.49;100.00;100255.69;5049875;28;20208;-74
2022/11/08 01:18:32;;;;;;;7.38;4.40;;;;;;;7.40;100.00;100256.00;5043797;28;20207;-73
2022/11/08 01:20:59;;;;;;;5.35;4.35;;;;;;;7.39;100.00;100264.94;5045584;28;20224;-73
2022/11/08 01:23:25;;;;;;;5.22;4.00;;;;;;;7.34;100.00;100250.84;5049732;28;20288;-73
2022/11/08 01:25:52;;;;;;;11.60;4.90;;;;;;;7.22;100.00;100250.34;5047947;28;20198;-71
2022/11/08 01:28:19;;;;;;;10.80;4.63;;;;;;;7.24;100.00;100248.50;5048445;28;20348;-73
2022/11/08 01:30:46;;;;;;;8.80;4.60;;;;;;;7.23;100.00;100246.72;5049663;28;20285;-74
2022/11/08 01:33:14;;;;;;;13.25;5.95;;;;;;;7.13;100.00;100241.75;5042947;28;20287;-74
2022/11/08 01:35:44;;;;;;;6.25;4.38;;;;;;;7.09;100.00;100243.63;5044677;28;20200;-74
2022/11/08 01:38:11;;;;;;;11.15;4.50;;;;;;;6.97;100.00;100230.69;5050200;28;20219;-74
2022/11/08 01:40:43;;;;;;;7.53;4.57;;;;;;;7.03;100.00;100233.13;5054901;28;20288;-74
2022/11/08 01:43:45;;;;;;;9.30;3.83;;;;;;;6.98;100.00;100229.75;5051253;28;20259;-74
2022/11/08 01:46:39;;;;;;;7.15;4.70;;;;;;;6.94;100.00;100230.75;4992887;28;20199;-73
2022/11/08 01:49:21;;;;;;;7.03;4.07;;;;;;;6.86;100.00;100220.31;4990569;28;20227;-74
2022/11/08 01:51:52;;;;;;;6.28;4.05;;;;;;;6.86;100.00;100223.00;5057578;22;20322;-75
2022/11/08 01:54:26;;;;;;;7.45;4.03;;;;;;;6.78;100.00;100212.50;5066562;28;20220;-75
2022/11/08 01:56:53;;;;;;;7.63;4.25;;;;;;;6.86;100.00;100220.31;5053957;28;20211;-75
2022/11/08 01:59:22;;;;;;;5.60;3.72;;;;;;;6.79;100.00;100213.41;5049780;28;20205;-76
2022/11/08 02:01:49;;;;;;;5.35;3.97;;;;;;;6.74;100.00;100204.63;5050470;28;20237;-76
2022/11/08 02:04:16;;;;;;;5.88;4.80;;;;;;;6.55;100.00;100210.59;5052022;28;20633;-76
2022/11/08 02:06:44;;;;;;;6.40;4.90;;;;;;;6.52;100.00;100212.50;5051702;28;20207;-75
2022/11/08 02:09:14;;;;;;;7.13;4.80;;;;;;;6.55;100.00;100202.56;5050026;28;20653;-75
2022/11/08 02:11:41;;;;;;;8.50;5.10;;;;;;;6.61;100.00;100198.84;5053098;28;20234;-76
2022/11/08 02:14:08;;;;;;;7.88;4.53;;;;;;;6.64;100.00;100206.75;5051585;28;20227;-76
2022/11/08 02:16:35;;;;;;;6.40;4.85;;;;;;;6.60;100.00;100203.31;5053005;28;20653;-75
2022/11/08 02:19:03;;;;;;;8.18;4.70;;;;;;;6.51;100.00;100202.72;5053578;28;20213;-75
2022/11/08 02:21:37;;;;;;;7.60;4.20;;;;;;;6.55;100.00;100204.38;5053503;28;20238;-76
2022/11/08 02:24:09;;;;;;;6.25;4.25;;;;;;;6.47;100.00;100200.16;5051613;28;20199;-75
2022/11/08 02:26:36;;;;;;;10.20;5.15;;;;;;;6.45;100.00;100204.66;5055956;28;20267;-74
2022/11/08 02:29:28;;;;;;;6.88;4.68;;;;;;;6.55;100.00;100194.53;5055146;28;20381;-75
2022/11/08 02:31:56;;;;;;;8.00;3.95;;;;;;;6.58;100.00;100196.22;5057713;28;20729;-75
2022/11/08 02:34:26;;;;;;;6.18;4.18;;;;;;;6.51;100.00;100200.03;5054374;28;20319;-75
2022/11/08 02:36:54;;;;;;;8.27;5.57;;;;;;;6.49;100.00;100200.09;5052890;28;20202;-75
2022/11/08 02:39:22;;;;;;;5.90;4.47;;;;;;;6.47;100.00;100197.47;5053177;28;20230;-75
2022/11/08 02:41:48;;;;;;;10.43;6.95;;;;;;;6.53;100.00;100185.69;5055838;28;20227;-76
2022/11/08 02:44:15;;;;;;;7.75;4.60;;;;;;;6.53;100.00;100183.00;5059251;28;20195;-76
2022/11/08 02:46:41;;;;;;;7.25;4.97;;;;;;;6.56;100.00;100179.38;5057693;28;20200;-74
2022/11/08 02:49:08;;;;;;;9.82;5.57;;;;;;;6.61;100.00;100182.78;5053255;28;20206;-75
2022/11/08 02:51:34;;;;;;;12.18;6.82;;;;;;;6.64;100.00;100185.34;5050928;28;20231;-75
2022/11/08 02:54:01;;;;;;;8.68;5.28;;;;;;;6.67;100.00;100187.91;5052897;28;20223;-74
2022/11/08 02:56:29;;;;;;;9.23;5.65;;;;;;;6.56;100.00;100172.22;5049811;28;20202;-75
2022/11/08 02:58:55;;;;;;;9.88;5.43;;;;;;;6.50;100.00;100169.75;5057120;28;20200;-75
2022/11/08 03:01:22;;;;;;;7.28;4.88;;;;;;;6.46;100.00;100174.28;5057793;28;20223;-75
2022/11/08 03:03:48;;;;;;;8.07;5.93;;;;;;;6.47;100.00;100170.72;5054211;28;20200;-76
2022/11/08 03:06:15;;;;;;;6.72;4.93;;;;;;;6.40;100.00;100170.94;5052689;28;20221;-76
2022/11/08 03:08:41;;;;;;;10.88;6.20;;;;;;;6.36;100.00;100166.63;5050986;28;20218;-75
2022/11/08 03:11:08;;;;;;;11.77;6.35;;;;;;;6.41;100.00;100170.91;5044954;28;20223;-75
2022/11/08 03:13:36;;;;;;;15.93;9.75;;;;;;;6.42;100.00;100171.78;5047664;28;20214;-74
2022/11/08 03:16:03;;;;;;;12.10;8.25;;;;;;;6.36;100.00;100167.50;5054882;28;20208;-75
2022/11/08 03:18:30;;;;;;;17.40;10.30;;;;;;;6.35;100.00;100160.38;5052934;28;20207;-74
2022/11/08 03:20:58;;;;;;;12.80;8.43;;;;;;;6.44;100.00;100159.22;5053544;28;20230;-74
2022/11/08 03:23:25;;;;;;;10.40;6.80;;;;;;;6.40;100.00;100149.53;5054197;28;20194;-75
2022/11/08 03:25:51;;;;;;;11.90;7.10;;;;;;;6.39;100.00;100158.50;5056235;28;20197;-74
2022/11/08 03:28:18;;;;;;;11.65;6.45;;;;;;;6.49;100.00;100154.63;5054502;28;20584;-75
2022/11/08 03:30:49;;;;;;;8.43;4.88;;;;;;;6.34;100.00;100142.59;5066588;28;20218;-76
2022/11/08 03:33:15;;;;;;;15.80;6.35;;;;;;;6.31;100.00;100139.13;5074831;28;20208;-74
2022/11/08 03:35:43;;;;;;;13.30;6.78;;;;;;;6.37;100.00;100141.63;5061259;28;20219;-76
2022/11/08 03:38:09;;;;;;;7.70;5.78;;;;;;;6.45;100.00;100134.25;5055047;28;20198;-76
2022/11/08 03:40:36;;;;;;;9.88;6.72;;;;;;;6.36;100.00;100132.75;5055866;28;20238;-77
2022/11/08 03:43:02;;;;;;;7.20;5.65;;;;;;;6.30;100.00;100130.25;5055261;28;20205;-76
2022/11/08 03:45:29;;;;;;;16.15;8.10;;;;;;;6.18;100.00;100131.53;5054446;28;20685;-75
2022/11/08 03:47:57;;;;;;;8.05;5.85;;;;;;;6.17;100.00;100129.78;5053260;28;20195;-76
2022/11/08 03:50:23;;;;;;;9.63;5.93;;;;;;;6.19;100.00;100127.91;5052122;28;20254;-75
2022/11/08 03:52:53;;;;;;;12.82;7.80;;;;;;;6.43;100.00;100128.94;5054039;28;20531;-76
2022/11/08 03:55:21;;;;;;;14.00;7.97;;;;;;;6.41;100.00;100130.78;5050486;28;20228;-75
2022/11/08 03:57:49;;;;;;;10.85;7.45;;;;;;;6.28;100.00;100129.41;5051059;28;20325;-77
2022/11/08 04:00:18;;;;;;;10.35;6.88;;;;;;;6.35;100.00;100130.97;5053990;28;20229;-76
2022/11/08 04:02:45;;;;;;;9.48;5.35;;;;;;;6.29;100.00;100132.97;5053992;28;20281;-76
2022/11/08 04:05:14;;;;;;;12.68;7.93;;;;;;;6.46;100.00;100127.94;5050923;28;20642;-75
2022/11/08 04:07:41;;;;;;;10.25;5.97;;;;;;;6.34;100.00;100120.34;5050230;28;20205;-75
2022/11/08 04:10:09;;;;;;;9.38;6.28;;;;;;;6.23;100.00;100112.66;5053696;28;20590;-75
2022/11/08 04:15:23;;;;;;;11.98;6.55;;;;;;;6.35;100.00;100112.25;5050819;28;20723;-75
2022/11/08 04:23:23;;;;;;;10.20;6.00;;;;;;;6.00;100.00;100100.03;5051783;28;20291;-75
2022/11/08 04:25:54;;;;;;;10.27;6.05;;;;;;;5.90;100.00;100095.84;5050116;28;20197;-73
2022/11/08 04:28:22;;;;;;;7.50;5.43;;;;;;;5.75;100.00;100090.06;5053264;28;20204;-74
2022/11/08 04:30:53;;;;;;;8.35;5.95;;;;;;;5.79;100.00;100086.38;5051250;28;20229;-74
2022/11/08 04:33:19;;;;;;;11.40;5.90;;;;;;;5.77;100.00;100071.31;5050711;28;20206;-73
2022/11/08 04:35:47;;;;;;;10.27;6.05;;;;;;;5.80;100.00;100079.22;5049671;28;20619;-74
2022/11/08 04:38:14;;;;;;;7.35;5.10;;;;;;;5.90;100.00;100071.78;5052851;28;20609;-73
2022/11/08 04:40:41;;;;;;;9.23;5.72;;;;;;;5.77;100.00;100072.19;5047229;28;20222;-75
2022/11/08 04:43:07;;;;;;;11.52;5.88;;;;;;;5.78;100.00;100081.06;5049391;28;20221;-75
2022/11/08 04:45:34;;;;;;;7.25;5.25;;;;;;;5.77;100.00;100071.31;5052803;28;20281;-74
2022/11/08 04:48:00;;;;;;;7.95;5.80;;;;;;;5.82;100.00;100069.38;5035168;28;20193;-75
2022/11/08 04:50:27;;;;;;;11.77;6.00;;;;;;;5.75;100.00;100074.03;5054198;28;20705;-75
2022/11/08 04:52:55;;;;;;;8.35;5.72;;;;;;;5.70;100.00;100070.63;5051329;28;20201;-75
2022/11/08 04:55:23;;;;;;;11.23;6.43;;;;;;;5.67;100.00;100077.84;5050751;28;20230;-76
2022/11/08 04:57:50;;;;;;;10.80;5.78;;;;;;;5.71;100.00;100072.34;5050113;28;20211;-75
2022/11/08 05:00:17;;;;;;;8.20;4.65;;;;;;;5.58;100.00;100074.50;5051053;28;20324;-75
2022/11/08 05:02:44;;;;;;;7.32;4.32;;;;;;;5.42;100.00;100075.91;5045661;28;20194;-74
2022/11/08 05:05:10;;;;;;;8.20;4.97;;;;;;;5.42;100.00;100075.91;5051790;28;20292;-76
2022/11/08 05:07:37;;;;;;;7.18;5.00;;;;;;;5.35;100.00;100067.19;5051305;28;20609;-76
2022/11/08 05:10:06;;;;;;;18.23;10.15;;;;;;;5.35;100.00;100075.19;5050115;28;20203;-74
2022/11/08 05:12:32;;;;;;;14.02;8.20;;;;;;;5.34;100.00;100068.13;5049912;28;20224;-77
2022/11/08 05:14:59;;;;;;;8.38;5.47;;;;;;;5.28;100.00;100064.75;5049658;28;20783;-74
2022/11/08 05:17:25;;;;;;;14.30;5.65;;;;;;;5.15;100.00;100051.75;5046423;28;20242;-78
2022/11/08 05:25:21;;;;;;;8.80;5.88;;;;;;;5.00;100.00;100049.53;5052409;28;20199;-76
2022/11/08 05:27:48;;;;;;;10.65;6.50;;;;;;;5.11;100.00;100054.53;5051865;28;20229;-76
2022/11/08 05:30:14;;;;;;;12.65;7.00;;;;;;;5.12;100.00;100056.31;5046688;28;20292;-76
2022/11/08 05:32:41;;;;;;;9.40;6.43;;;;;;;5.10;100.00;100055.47;5047009;28;20569;-76
2022/11/08 05:35:08;;;;;;;64.28;36.92;;;;;;;4.98;100.00;100054.91;5053366;28;20207;-76
2022/11/08 05:37:34;;;;;;;29.17;15.63;;;;;;;4.92;100.00;100040.84;5052478;28;20634;-75
2022/11/08 05:40:01;;;;;;;11.60;8.73;;;;;;;5.04;100.00;100042.31;5054684;28;20197;-77
2022/11/08 05:42:28;;;;;;;10.32;6.82;;;;;;;4.94;100.00;100047.03;5052114;28;20201;-75
2022/11/08 05:44:55;;;;;;;9.45;7.15;;;;;;;4.85;100.00;100049.97;5044747;28;20573;-74
2022/11/08 05:47:22;;;;;;;13.55;7.45;;;;;;;4.69;100.00;100044.16;5050896;28;20199;-76
2022/11/08 05:49:48;;;;;;;9.73;6.60;;;;;;;4.79;100.00;100049.22;5046426;28;20193;-76
2022/11/08 05:52:15;;;;;;;12.32;7.32;;;;;;;4.68;100.00;100043.28;5052139;28;20233;-76
2022/11/08 05:54:41;;;;;;;9.32;6.68;;;;;;;4.80;100.00;100040.28;5052317;28;20702;-76
2022/11/08 05:57:07;;;;;;;12.50;7.43;;;;;;;4.76;100.00;100035.94;5051917;28;20201;-76
2022/11/08 05:59:35;;;;;;;8.55;6.68;;;;;;;4.67;100.00;100035.31;5037322;28;20203;-76
2022/11/08 06:02:02;;;;;;;10.73;6.97;;;;;;;4.69;100.00;100042.38;5052540;28;20223;-76
2022/11/08 06:04:28;;;;;;;15.15;9.82;;;;;;;4.70;100.00;100049.44;5049920;28;20665;-75
2022/11/08 06:06:55;;;;;;;19.63;14.70;;;;;;;4.70;100.00;100044.09;5048572;28;20193;-75
2022/11/08 06:09:21;;;;;;;16.75;11.43;;;;;;;4.61;100.00;100047.00;5051557;28;20207;-76
2022/11/08 06:11:48;;;;;;;11.63;8.75;;;;;;;4.58;100.00;100036.44;5049236;28;20221;-75
2022/11/08 06:14:14;;;;;;;14.52;9.48;;;;;;;4.59;100.00;100032.88;5046700;28;20201;-75
2022/11/08 06:16:42;;;;;;;14.88;9.70;;;;;;;4.68;100.00;100035.28;5052719;28;20200;-78
2022/11/08 06:19:09;;;;;;;18.92;8.57;;;;;;;4.70;100.00;100040.56;5053262;28;20204;-76
2022/11/08 06:21:35;;;;;;;11.38;8.13;;;;;;;4.70;100.00;100040.56;5052343;28;20220;-75
2022/11/08 06:24:02;;;;;;;18.88;12.18;;;;;;;4.71;100.00;100045.88;5051202;28;20211;-74
2022/11/08 06:26:28;;;;;;;26.95;17.58;;;;;;;4.75;100.00;100046.69;5055321;28;20207;-78
2022/11/08 06:28:55;;;;;;;18.70;9.25;;;;;;;4.63;100.00;100055.84;5058030;28;20207;-76
2022/11/08 06:31:22;;;;;;;14.32;9.10;;;;;;;4.71;100.00;100039.66;5054417;28;20225;-75
2022/11/08 06:33:50;;;;;;;17.40;8.90;;;;;;;4.61;100.00;100036.34;5061899;28;20201;-75
2022/11/08 06:36:17;;;;;;;16.30;9.38;;;;;;;4.64;100.00;100033.63;5060508;28;20224;-75
2022/11/08 06:38:43;;;;;;;11.02;8.25;;;;;;;4.51;100.00;100029.53;5062451;28;20272;-75
2022/11/08 06:41:16;;;;;;;12.55;8.45;;;;;;;4.61;100.00;100041.69;5069753;28;20223;-75
2022/11/08 06:43:43;;;;;;;11.50;7.30;;;;;;;4.79;100.00;100035.88;5069335;28;20204;-75
2022/11/08 06:46:09;;;;;;;13.07;7.47;;;;;;;4.92;100.00;100043.53;5060729;28;20264;-76
2022/11/08 06:48:36;;;;;;;19.83;8.10;;;;;;;5.11;100.00;100039.44;5048932;28;20295;-77
2022/11/08 06:51:04;;;;;;;9.10;7.35;;;;;;;5.18;100.00;100040.13;5052060;28;20229;-78
2022/11/08 06:53:31;;;;;;;28.58;18.35;;;;;;;5.23;100.00;100055.06;5056132;28;20589;-75
2022/11/08 06:55:58;;;;;;;14.20;9.55;;;;;;;5.26;100.00;100047.91;5056263;28;20217;-76
2022/11/08 06:58:25;;;;;;;16.02;10.48;;;;;;;5.44;100.00;100056.25;5052203;28;20300;-75
2022/11/08 07:00:51;;;;;;;14.15;6.60;;;;;;;5.43;100.00;100050.97;5053651;28;20218;-75
2022/11/08 07:03:18;;;;;;;9.00;6.70;;;;;;;5.37;100.00;100057.34;5056116;28;20204;-75
2022/11/08 07:05:44;;;;;;;8.00;5.90;;;;;;;5.38;100.00;100052.88;5046777;28;20190;-76
2022/11/08 07:08:13;;;;;;;9.23;5.78;;;;;;;5.47;100.00;100057.94;5053440;28;20318;-75
2022/11/08 07:10:40;;;;;;;72.85;40.78;;;;;;;5.57;100.00;100059.44;5052504;28;20330;-75
2022/11/08 07:13:09;;;;;;;21.10;14.35;;;;;;;5.72;100.00;100075.91;5050960;28;20201;-76
2022/11/08 07:15:37;;;;;;;11.98;7.25;;;;;;;5.96;100.00;100069.81;5048218;28;20218;-75
2022/11/08 07:18:05;;;;;;;7.47;6.30;;;;;;;6.27;100.00;100071.53;5053162;28;20661;-75
2022/11/08 07:20:32;;;;;;;6.93;5.30;;;;;;;7.01;100.00;100079.69;5052464;28;20268;-75
2022/11/08 07:22:59;;;;;;;10.50;6.45;;;;;;;6.85;100.00;100068.63;5056292;28;20200;-76
2022/11/08 07:25:28;;;;;;;9.80;6.18;;;;;;;6.92;100.00;100071.97;5054879;28;20200;-75
2022/11/08 07:27:55;;;;;;;7.10;4.90;;;;;;;6.72;100.00;100067.34;5053527;28;20203;-76
2022/11/08 07:30:21;;;;;;;8.60;6.15;;;;;;;6.78;100.00;100075.16;5052932;28;20223;-75
2022/11/08 07:32:48;;;;;;;9.05;5.63;;;;;;;6.94;100.00;100084.38;5050015;28;20228;-75
2022/11/08 07:35:15;;;;;;;12.98;7.97;;;;;;;7.04;100.00;100082.25;5054388;28;20234;-75
2022/11/08 07:37:41;;;;;;;11.68;6.88;;;;;;;7.14;100.00;100088.16;5055027;28;20430;-75
2022/11/08 07:40:09;;;;;;;10.18;6.25;;;;;;;6.99;100.00;100086.91;5056866;28;20201;-75
2022/11/08 07:42:37;;;;;;;9.50;5.57;;;;;;;7.01;100.00;100085.03;5057646;28;20234;-75
2022/11/08 07:45:05;;;;;;;8.98;5.78;;;;;;;7.34;100.00;100082.06;5057843;28;20222;-75
2022/11/08 07:47:32;;;;;;;9.65;6.32;;;;;;;7.72;100.00;100081.47;5057395;28;20223;-74
2022/11/08 07:49:58;;;;;;;8.32;5.80;;;;;;;8.90;100.00;100094.59;5057281;28;20207;-75
2022/11/08 07:52:25;;;;;;;8.43;5.90;;;;;;;9.64;100.00;100090.44;5056374;28;20201;-75
2022/11/08 07:54:52;;;;;;;13.02;6.38;;;;;;;9.88;100.00;100067.75;5058138;28;20197;-73
2022/11/08 07:57:19;;;;;;;7.50;5.15;;;;;;;9.44;100.00;100067.16;5055738;28;20208;-73
2022/11/08 07:59:46;;;;;;;7.35;5.25;;;;;;;9.37;100.00;100070.09;5055123;28;20212;-74
2022/11/08 08:02:13;;;;;;;13.07;5.63;;;;;;;9.15;100.00;100075.56;5047980;28;20228;-75
2022/11/08 08:04:40;;;;;;;9.32;5.60;;;;;;;9.21;100.00;100082.50;5054933;28;20223;-73
2022/11/08 08:07:07;;;;;;;9.98;5.80;;;;;;;9.25;100.00;100080.53;5051864;28;20248;-72
2022/11/08 08:09:34;;;;;;;7.95;5.47;;;;;;;9.27;100.00;100078.66;5050207;28;20197;-74
2022/11/08 08:12:01;;;;;;;11.40;5.45;;;;;;;9.25;100.00;100075.16;5054154;28;20236;-73
2022/11/08 08:14:28;;;;;;;7.43;5.10;;;;;;;9.38;100.00;100088.00;5046837;28;20194;-74
2022/11/08 08:16:56;;;;;;;9.65;5.40;;;;;;;9.91;100.00;100080.19;5054296;28;20213;-73
2022/11/08 08:19:22;;;;;;;9.30;7.20;;;;;;;9.69;100.00;100081.19;5048271;28;20694;-75
2022/11/08 08:21:49;;;;;;;11.52;6.78;;;;;;;9.42;100.00;100079.78;5053376;28;20276;-73
2022/11/08 08:24:15;;;;;;;6.95;6.22;;;;;;;9.25;100.00;100091.28;5050770;28;21559;-73
2022/11/08 08:26:42;;;;;;;9.32;6.15;;;;;;;8.98;100.00;100089.75;5038237;28;20196;-74
2022/11/08 08:29:09;;;;;;;10.65;7.50;;;;;;;8.89;100.00;100089.28;5071722;28;20194;-74
2022/11/08 08:31:35;;;;;;;7.85;6.45;;;;;;;8.59;100.00;100080.72;5067785;28;20223;-73
2022/11/08 08:34:03;;;;;;;9.07;6.28;;;;;;;8.93;100.00;100086.41;5067972;28;20199;-74
2022/11/08 08:36:30;;;;;;;9.23;6.50;;;;;;;9.52;100.00;100089.16;5069239;28;20264;-74
2022/11/08 08:38:56;;;;;;;13.60;7.25;;;;;;;11.41;100.00;100069.00;5072459;28;20262;-72
2022/11/08 08:41:23;;;;;;;8.68;5.45;;;;;;;12.68;100.00;100061.78;5070651;28;20221;-72
2022/11/08 08:43:49;;;;;;;10.90;6.68;;;;;;;12.66;100.00;100060.13;5070700;28;20197;-73
2022/11/08 08:46:16;;;;;;;9.95;6.88;;;;;;;12.72;100.00;100060.66;5065780;28;20672;-73
2022/11/08 08:48:42;;;;;;;9.80;7.30;;;;;;;12.27;100.00;100066.91;5068162;28;20666;-72
2022/11/08 08:51:10;;;;;;;10.02;7.38;;;;;;;11.85;100.00;100065.69;5068934;28;20227;-72
2022/11/08 08:53:37;;;;;;;23.40;16.08;;;;;;;11.49;100.00;100069.47;5069624;28;20207;-74
2022/11/08 08:56:04;;;;;;;13.20;10.20;;;;;;;11.03;100.00;100066.50;5066044;28;20221;-72
2022/11/08 08:58:31;;;;;;;10.05;7.95;;;;;;;11.02;100.00;100068.34;5071499;28;20268;-73
2022/11/08 09:01:01;;;;;;;15.27;8.50;;;;;;;11.00;100.00;100070.25;5066320;28;20231;-72
2022/11/08 09:03:28;;;;;;;11.77;8.23;;;;;;;10.84;100.00;100077.38;5062561;28;20205;-74
2022/11/08 09:05:56;;;;;;;12.70;8.25;;;;;;;10.80;100.00;100073.97;5039625;28;20204;-74
2022/11/08 09:08:24;;;;;;;27.42;18.92;;;;;;;10.94;100.00;100083.16;5059544;28;20205;-73
2022/11/08 09:10:54;;;;;;;25.95;19.20;;;;;;;10.92;100.00;100083.25;5056995;28;20221;-74
2022/11/08 09:13:21;;;;;;;15.65;12.02;;;;;;;10.96;100.00;100079.44;5054313;28;20212;-74
2022/11/08 09:15:48;;;;;;;13.02;9.27;;;;;;;11.00;100.00;100089.09;5050106;28;20213;-73
2022/11/08 09:18:15;;;;;;;10.10;8.00;;;;;;;11.14;100.00;100096.47;5052044;28;20201;-74
2022/11/08 09:20:42;;;;;;;9.57;7.68;;;;;;;11.12;100.00;100087.59;5053501;28;20225;-75
2022/11/08 09:23:10;;;;;;;10.02;6.90;;;;;;;11.31;100.00;100089.34;5052758;28;20201;-74
2022/11/08 09:25:38;;;;;;;10.05;7.63;;;;;;;11.74;100.00;100071.69;5048063;28;21697;-73
2022/11/08 09:28:05;;;;;;;10.23;7.72;;;;;;;12.24;100.00;100078.78;5052452;28;20310;-75
2022/11/08 09:30:31;;;;;;;9.73;7.07;;;;;;;13.07;100.00;100084.69;5053337;28;20728;-74
2022/11/08 09:32:58;;;;;;;10.27;6.53;;;;;;;13.51;100.00;100082.94;5052218;28;20293;-74
2022/11/08 09:35:24;;;;;;;10.93;6.25;;;;;;;14.65;100.00;100081.88;5049822;28;20221;-74
2022/11/08 09:37:52;;;;;;;12.15;6.20;;;;;;;16.24;100.00;100064.31;5035426;28;20228;-73
2022/11/08 09:40:25;;;;;;;8.85;5.60;;;;;;;18.60;100.00;100073.00;5051610;28;20228;-74
2022/11/08 09:43:06;;;;;;;10.35;5.50;;;;;;;20.43;72.83;100066.06;5057982;28;20207;-72
2022/11/08 09:45:37;;;;;;;7.90;5.00;;;;;;;21.76;62.44;100066.28;5062462;28;20193;-73
2022/11/08 09:48:06;;;;;;;9.13;5.50;;;;;;;23.14;55.59;100068.06;5066857;28;20463;-73
2022/11/08 09:50:38;;;;;;;8.23;5.60;;;;;;;23.92;51.23;100059.84;5065865;28;20475;-74
2022/11/08 09:53:17;;;;;;;6.07;4.40;;;;;;;24.94;46.65;100066.19;5056681;28;20536;-75
2022/11/08 09:55:47;;;;;;;4.67;4.10;;;;;;;24.97;45.42;100060.34;5055090;28;20463;-74
2022/11/08 09:58:26;;;;;;;5.20;4.00;;;;;;;24.18;47.45;100064.44;5051894;28;20835;-74
2022/11/08 10:00:53;;;;;;;6.63;4.50;;;;;;;24.70;44.72;100067.03;5051844;28;20479;-74
2022/11/08 10:03:23;;;;;;;5.57;4.17;;;;;;;23.02;50.26;100072.94;5052283;28;20439;-72
2022/11/08 10:06:02;;;;;;;5.83;4.30;;;;;;;23.08;51.71;100064.03;5052215;28;20456;-75
2022/11/08 10:08:33;;;;;;;6.93;4.07;;;;;;;21.60;53.58;100057.84;5052334;28;20450;-74
2022/11/08 10:11:20;;;;;;;5.07;3.97;;;;;;;19.10;70.51;100056.94;5050169;28;20482;-75
2022/11/08 10:14:04;;;;;;;6.43;4.80;;;;;;;19.64;68.15;100044.91;5050459;28;20443;-74
2022/11/08 10:16:38;;;;;;;6.13;4.33;;;;;;;20.04;64.46;100029.56;5051281;28;20483;-75
2022/11/08 10:19:33;;;;;;;5.63;4.00;;;;;;;20.46;62.81;100041.16;5052290;28;20529;-75
2022/11/08 10:22:05;;;;;;;4.70;3.77;;;;;;;19.60;66.25;100035.25;4973746;28;20525;-73
2022/11/08 10:24:35;;;;;;;5.53;3.57;;;;;;;19.68;66.31;100027.25;4980222;28;21022;-72
2022/11/08 10:27:03;;;;;;;7.17;3.77;;;;;;;21.47;57.51;100021.69;4991234;28;20459;-73
2022/11/08 10:29:36;;;;;;;5.07;3.83;;;;;;;21.68;55.41;100022.31;4977314;28;20439;-73
2022/11/08 10:32:13;;;;;;;5.60;3.63;;;;;;;22.27;52.12;100022.91;4971247;28;20470;-74
2022/11/08 10:34:47;;;;;;;7.40;3.23;;;;;;;21.56;54.86;100012.56;4968526;28;20457;-73
2022/11/08 10:37:15;;;;;;;5.40;3.77;;;;;;;21.06;57.54;100026.50;4967683;28;20869;-75
2022/11/08 10:39:48;;;;;;;4.80;3.00;;;;;;;21.14;56.88;100027.50;4970785;28;20902;-75
2022/11/08 10:42:20;;;;;;;5.27;2.90;;;;;;;21.47;56.37;100025.28;4970211;28;20479;-73
2022/11/08 10:44:48;;;;;;;3.83;2.80;;;;;;;22.12;52.57;100021.69;4970367;28;20542;-73
2022/11/08 10:47:22;;;;;;;6.37;3.43;;;;;;;21.35;55.26;100019.09;4969868;28;20707;-75
2022/11/08 10:49:48;;;;;;;6.00;2.83;;;;;;;21.02;57.94;100034.13;4970483;28;20506;-74
2022/11/08 10:52:24;;;;;;;4.07;2.83;;;;;;;20.42;59.41;100031.53;4970405;28;20978;-72
2022/11/08 10:54:52;;;;;;;5.23;2.97;;;;;;;20.08;62.06;100029.16;4969412;28;20465;-72
2022/11/08 10:57:24;;;;;;;3.63;2.80;;;;;;;21.26;56.96;100027.34;4971212;28;20467;-73
2022/11/08 10:59:52;;;;;;;6.30;2.80;;;;;;;19.89;63.10;100018.16;5030330;28;20533;-73
2022/11/08 11:02:23;;;;;;;5.73;2.70;;;;;;;20.36;61.26;100024.72;5045862;28;20483;-72
2022/11/08 11:04:49;;;;;;;5.20;2.67;;;;;;;20.25;61.57;100010.34;5049171;28;20549;-75
2022/11/08 11:07:33;;;;;;;4.20;2.60;;;;;;;20.23;61.88;100006.88;5049397;28;20926;-72
2022/11/08 11:10:22;;;;;;;3.00;2.27;;;;;;;21.14;57.04;100023.88;5049516;28;20459;-74
2022/11/08 11:12:50;;;;;;;3.83;2.30;;;;;;;21.40;55.09;100008.56;5051523;28;20508;-75
2022/11/08 11:15:18;;;;;;;8.03;2.43;;;;;;;20.61;57.42;100000.59;5053656;28;20432;-74
2022/11/08 11:17:46;;;;;;;3.77;2.83;;;;;;;19.46;61.01;99997.38;5050021;28;20570;-74
2022/11/08 11:20:22;;;;;;;6.20;2.40;;;;;;;18.60;69.41;99996.66;5049137;28;20522;-75
2022/11/08 11:22:49;;;;;;;5.40;2.40;;;;;;;18.52;71.94;100002.78;5053495;28;20446;-73
2022/11/08 11:25:19;;;;;;;4.50;2.60;;;;;;;18.05;75.42;99994.84;5055918;28;20459;-72
2022/11/08 11:27:52;;;;;;;4.00;2.90;;;;;;;17.95;79.16;99990.28;5054925;28;20458;-74
2022/11/08 11:30:40;;;;;;;3.60;2.10;;;;;;;17.80;77.93;99997.84;5055879;28;20467;-74
2022/11/08 11:33:23;;;;;;;3.27;2.50;;;;;;;17.24;83.43;99998.72;5050099;28;20469;-74
2022/11/08 11:35:54;;;;;;;3.67;2.42;;;;;;;16.92;88.89;99993.09;5049164;28;20447;-73
2022/11/08 11:38:30;;;;;;;3.90;2.42;;;;;;;16.96;87.77;99973.69;5056307;28;20569;-73
2022/11/08 11:41:03;;;;;;;5.43;2.85;;;;;;;16.56;92.95;99984.06;5048067;28;20220;-73
2022/11/08 11:43:34;;;;;;;5.07;2.50;;;;;;;16.39;95.30;99980.78;5055141;28;20198;-75
2022/11/08 11:46:12;;;;;;;2.90;2.17;;;;;;;16.23;95.55;99972.03;5054546;28;20262;-73
2022/11/08 11:48:44;;;;;;;5.40;2.85;;;;;;;16.16;97.81;99971.66;5046373;28;20570;-74
2022/11/08 11:51:11;;;;;;;6.78;3.10;;;;;;;16.33;96.33;99980.41;5054596;28;20225;-74